• Join FlightAware (Why Join?)
  • Login
  • US Flag 
07:20PM EDT


 

Airport Tracker/Info


-or-


 

Live Flight TrackerFlight Track Log ✈ N195JG ✈ 26-Jun-2013 ✈ KBNA - KRYY

Flight Track Log - Related Links

Times and Time Zones

All times are in EDT time to prevent confusion due to time zone crossing. See the N195JG flight status page for this flight to view local times or setup timezone preferences in your user account.

Time Position Orientation Groundspeed Altitude Reporting Facility
EDT Latitude Longitude Course Direction KTS MPH feet Rate Location/Type
05:39PM 36.1167 -86.6667 165° South 136 157 1,200  Level Nashville TRACON
05:40PM 36.0667 -86.6500 165° South 146 168 3,100 1,500 Climbing Nashville TRACON
05:41PM 36.0167 -86.6500 180° South 152 175 4,600 1,320 Climbing Nashville TRACON
05:42PM 35.9667 -86.6333 165° South 171 197 5,800 1,200 Climbing Nashville TRACON
05:43PM 35.9167 -86.6333 180° South 181 208 7,100 1,140 Climbing Nashville TRACON
05:44PM 35.8833 -86.6167 158° South 199 229 8,000 1,020 Climbing Nashville TRACON
05:45PM 35.8364 -86.5903 155° Southeast 206 237 9,100 1,260 Climbing Memphis Center
05:46PM 35.7894 -86.5517 146° Southeast 213 245 10,500 1,380 Climbing Memphis Center
05:47PM 35.7444 -86.5128 145° Southeast 208 239 11,900 1,380 Climbing Memphis Center
05:48PM 35.7036 -86.4686 139° Southeast 198 228 13,300 1,380 Climbing Memphis Center
05:49PM 35.6625 -86.4244 139° Southeast 191 220 14,700 1,380 Climbing Memphis Center
05:50PM 35.6214 -86.3781 137° Southeast 191 220 16,100 1,380 Climbing Memphis Center
05:51PM 35.5761 -86.3292 139° Southeast 191 220 17,500 1,320 Climbing Memphis Center
05:52PM 35.5350 -86.2853 139° Southeast 191 220 18,800 780 Climbing Memphis Center
05:53PM 35.4917 -86.2389 139° Southeast 196 226 19,100 120 Climbing Memphis Center
05:54PM 35.4442 -86.1878 139° Southeast 229 264 19,100  Level Memphis Center
05:55PM 35.3922 -86.1344 140° Southeast 243 280 19,100  Level Memphis Center
05:56PM 35.3422 -86.0758 136° Southeast 243 280 19,100  Level Memphis Center
05:57PM 35.2903 -86.0225 140° Southeast 243 280 19,100  Level Memphis Center
05:58PM 35.2153 -85.9403 138° Southeast 234 269 19,100  Level Atlanta Center
05:59PM 35.1703 -85.8911 138° Southeast 240 276 19,100  Level Atlanta Center
06:00PM 35.1189 -85.8392 140° Southeast 240 276 19,100  Level Atlanta Center
06:01PM 35.0675 -85.7847 139° Southeast 240 276 19,100  Level Atlanta Center
06:02PM 35.0161 -85.7278 138° Southeast 240 276 19,100  Level Atlanta Center
06:03PM 34.9667 -85.6736 138° Southeast 245 282 19,100  Level Atlanta Center
06:04PM 34.9133 -85.6169 139° Southeast 250 288 19,100  Level Atlanta Center
06:05PM 34.8617 -85.5678 142° Southeast 250 288 19,100  Level Atlanta Center
06:06PM 34.7997 -85.5261 151° Southeast 250 288 19,100  Level Atlanta Center
06:07PM 34.7375 -85.4922 156° South 250 288 19,100 -300 Level Atlanta Center
06:08PM 34.6772 -85.4508 151° Southeast 250 288 18,500 -780 Descending Atlanta Center
06:09PM 34.6172 -85.4169 155° Southeast 245 282 17,600 -960 Descending Atlanta Center
06:10PM 34.5592 -85.3781 151° Southeast 240 276 16,600 -960 Descending Atlanta Center
06:11PM 34.5053 -85.3394 149° Southeast 234 269 15,700 -900 Descending Atlanta Center
06:12PM 34.4578 -85.2883 138° Southeast 234 269 14,800 -900 Descending Atlanta Center
06:13PM 34.4189 -85.2272 128° Southeast 228 262 13,900 -900 Descending Atlanta Center
06:14PM 34.3778 -85.1614 127° Southeast 223 257 13,000 -960 Descending Atlanta Center
06:15PM 34.3406 -85.1056 129° Southeast 223 257 12,000 -960 Descending Atlanta Center
06:16PM 34.3058 -85.0422 124° Southeast 223 257 11,100 -960 Descending Atlanta Center
06:17PM 34.2706 -84.9839 126° Southeast 228 262 10,100 -960 Descending Atlanta Center
06:18PM 34.2356 -84.9258 126° Southeast 228 262 9,200 -960 Descending Atlanta Center
06:19PM 34.1983 -84.8700 129° Southeast 223 257 8,200 -900 Descending Atlanta Center
06:20PM 34.1592 -84.8344 143° Southeast 213 245 7,500 -900 Descending Atlanta Center
06:21PM 34.1114 -84.7967 147° Southeast 200 230 6,500 -960 Descending Atlanta Center
06:22PM 34.0969 -84.7286 104° East 185 213 5,600 -900 Descending Atlanta Center
06:23PM 34.0933 -84.6633 94° East 190 219 4,700 -840 Descending Atlanta Center
06:24PM 34.0872 -84.6006 97° East 195 224 4,000 -600 Descending Atlanta Center
06:26PM 34.0500 -84.5000 114° Southeast 153 176 2,900 -600 Descending Atlanta TRACON
06:27PM 34.0167 -84.5167 203° Southwest 122 140 2,100 -660 Descending Atlanta TRACON
06:28PM 34.0167 -84.5500 270° West 109 125 1,600 -540 Descending Atlanta TRACON
06:30PM 34.0132 -84.5971 239° Southwest  Level Estimated